createdAt,value
2023-02-05T00:01:28.677Z,2.47
2023-02-05T00:03:55.488Z,2.50
2023-02-05T00:06:22.364Z,3.10
2023-02-05T00:08:49.124Z,2.37
2023-02-05T00:11:15.973Z,2.20
2023-02-05T00:13:43.408Z,2.10
2023-02-05T00:16:15.342Z,2.67
2023-02-05T00:18:42.478Z,2.43
2023-02-05T00:21:09.610Z,2.57
2023-02-05T00:23:37.183Z,2.63
2023-02-05T00:26:05.979Z,2.13
2023-02-05T00:28:34.613Z,2.90
2023-02-05T00:31:06.616Z,2.30
2023-02-05T00:33:33.423Z,2.40
2023-02-05T00:36:00.161Z,2.30
2023-02-05T00:38:26.929Z,2.30
2023-02-05T00:40:53.645Z,2.30
2023-02-05T00:43:20.550Z,2.80
2023-02-05T00:45:47.456Z,2.70
2023-02-05T00:48:14.328Z,2.80
2023-02-05T00:50:41.134Z,2.93
2023-02-05T00:53:08.038Z,3.27
2023-02-05T00:55:37.042Z,2.73
2023-02-05T00:58:03.798Z,2.60
2023-02-05T01:00:30.976Z,2.53
2023-02-05T01:02:57.781Z,3.03
2023-02-05T01:05:24.651Z,2.80
2023-02-05T01:07:51.539Z,2.70
2023-02-05T01:10:18.448Z,2.60
2023-02-05T01:12:45.231Z,3.00
2023-02-05T01:15:13.251Z,2.80
2023-02-05T01:17:40.649Z,2.70
2023-02-05T01:20:08.831Z,2.63
2023-02-05T01:22:35.559Z,2.80
2023-02-05T01:25:02.910Z,2.60
2023-02-05T01:27:29.790Z,2.87
2023-02-05T01:29:56.513Z,2.90
2023-02-05T01:32:23.206Z,2.53
2023-02-05T01:34:50.157Z,2.50
2023-02-05T01:37:16.954Z,2.73
2023-02-05T01:39:44.192Z,2.77
2023-02-05T01:42:21.842Z,2.40
2023-02-05T01:45:37.786Z,2.40
2023-02-05T01:48:05.883Z,2.70
2023-02-05T01:50:42.965Z,2.60
2023-02-05T01:53:18.385Z,2.53
2023-02-05T01:55:54.005Z,2.57
2023-02-05T01:58:21.020Z,2.10
2023-02-05T02:00:48.170Z,2.20
2023-02-05T02:03:15.975Z,2.40
2023-02-05T02:05:42.965Z,2.70
2023-02-05T02:08:12.463Z,2.60
2023-02-05T02:10:42.133Z,2.20
2023-02-05T02:13:10.370Z,2.60
2023-02-05T02:15:37.966Z,2.70
2023-02-05T02:18:24.902Z,2.70
2023-02-05T02:21:16.461Z,2.47
2023-02-05T02:24:11.160Z,2.60
2023-02-05T02:27:22.566Z,2.30
2023-02-05T02:30:14.091Z,2.20
2023-02-05T02:33:03.124Z,1.87
2023-02-05T02:35:33.119Z,2.30
2023-02-05T02:38:13.000Z,2.60
2023-02-05T02:40:49.446Z,2.60
2023-02-05T02:43:25.155Z,2.30
2023-02-05T02:46:06.829Z,2.30
2023-02-05T02:48:37.914Z,2.00
2023-02-05T02:51:08.498Z,2.40
2023-02-05T02:53:40.140Z,2.43
2023-02-05T02:56:12.024Z,2.10
2023-02-05T02:58:52.130Z,2.03
2023-02-05T03:01:23.181Z,2.37
2023-02-05T03:03:58.790Z,2.47
2023-02-05T03:06:28.206Z,2.93
2023-02-05T03:09:03.191Z,2.50
2023-02-05T03:11:30.442Z,2.47
2023-02-05T03:13:57.717Z,2.40
2023-02-05T03:16:26.981Z,2.30
2023-02-05T03:18:56.041Z,2.33
2023-02-05T03:21:41.292Z,2.50
2023-02-05T03:24:08.655Z,2.20
2023-02-05T03:26:36.133Z,2.30
2023-02-05T03:29:13.248Z,2.30
2023-02-05T03:31:49.366Z,2.60
2023-02-05T03:34:35.107Z,2.30
2023-02-05T03:37:18.373Z,2.43
2023-02-05T03:40:06.228Z,2.13
2023-02-05T03:43:03.810Z,2.37
2023-02-05T03:45:45.915Z,2.63
2023-02-05T03:48:37.122Z,1.90
2023-02-05T03:51:03.822Z,2.80
2023-02-05T03:53:39.928Z,2.40
2023-02-05T03:56:13.571Z,2.60
2023-02-05T03:58:43.766Z,2.30
2023-02-05T04:01:12.252Z,2.10
2023-02-05T04:03:39.639Z,2.70
2023-02-05T04:06:07.489Z,2.03
2023-02-05T04:08:34.222Z,2.30
2023-02-05T04:11:01.126Z,2.10
2023-02-05T04:13:27.837Z,2.43
2023-02-05T04:15:54.557Z,2.60
2023-02-05T04:18:21.426Z,2.13
2023-02-05T04:20:48.144Z,2.10
2023-02-05T04:23:14.862Z,2.27
2023-02-05T04:25:42.369Z,2.20
2023-02-05T04:28:10.240Z,2.30
2023-02-05T04:30:37.094Z,2.83
2023-02-05T04:33:03.840Z,2.43
2023-02-05T04:35:30.601Z,2.20
2023-02-05T04:37:57.322Z,2.20
2023-02-05T04:40:23.992Z,2.30
2023-02-05T04:42:50.618Z,2.13
2023-02-05T04:45:17.373Z,2.23
2023-02-05T04:47:44.151Z,2.60
2023-02-05T04:50:10.991Z,2.20
2023-02-05T04:52:37.726Z,2.07
2023-02-05T04:55:04.869Z,1.97
2023-02-05T04:57:31.634Z,2.20
2023-02-05T04:59:58.376Z,2.50
2023-02-05T05:02:25.214Z,2.33
2023-02-05T05:04:52.000Z,1.90
2023-02-05T05:07:18.644Z,2.50
2023-02-05T05:09:45.339Z,2.20
2023-02-05T05:12:12.134Z,2.23
2023-02-05T05:14:39.016Z,2.17
2023-02-05T05:17:05.717Z,1.90
2023-02-05T05:19:32.421Z,2.20
2023-02-05T05:21:59.329Z,2.30
2023-02-05T05:24:25.981Z,2.10
2023-02-05T05:26:52.658Z,2.40
2023-02-05T05:29:19.407Z,2.03
2023-02-05T05:31:46.124Z,2.30
2023-02-05T05:34:12.790Z,2.00
2023-02-05T05:36:43.626Z,2.20
2023-02-05T05:39:29.564Z,2.33
2023-02-05T05:42:14.912Z,2.00
2023-02-05T05:44:41.716Z,1.90
2023-02-05T05:47:08.422Z,2.10
2023-02-05T05:49:35.225Z,2.40
2023-02-05T05:52:01.913Z,2.10
2023-02-05T05:54:28.671Z,2.20
2023-02-05T05:56:55.404Z,2.10
2023-02-05T05:59:22.113Z,2.40
2023-02-05T06:01:48.822Z,2.23
2023-02-05T06:04:15.531Z,2.30
2023-02-05T06:06:42.649Z,2.23
2023-02-05T06:09:09.448Z,2.20
2023-02-05T06:11:36.162Z,2.53
2023-02-05T06:14:02.828Z,2.23
2023-02-05T06:16:29.638Z,2.10
2023-02-05T06:18:56.686Z,1.97
2023-02-05T06:21:23.454Z,2.30
2023-02-05T06:23:50.248Z,2.20
2023-02-05T06:26:17.120Z,2.00
2023-02-05T06:28:43.842Z,2.07
2023-02-05T06:31:10.705Z,3.13
2023-02-05T06:33:37.500Z,2.00
2023-02-05T06:36:04.620Z,2.20
2023-02-05T06:38:31.927Z,2.10
2023-02-05T06:40:58.606Z,2.30
2023-02-05T06:43:25.331Z,1.90
2023-02-05T06:45:52.245Z,2.00
2023-02-05T06:48:19.193Z,2.07
2023-02-05T06:50:46.774Z,2.00
2023-02-05T06:53:13.593Z,2.37
2023-02-05T06:55:40.885Z,2.00
2023-02-05T06:58:08.034Z,2.50
2023-02-05T07:00:35.820Z,2.40
2023-02-05T07:03:02.631Z,2.83
2023-02-05T07:05:29.504Z,1.80
2023-02-05T07:07:56.291Z,2.13
2023-02-05T07:10:23.079Z,2.37
2023-02-05T07:12:49.762Z,2.27
2023-02-05T07:15:16.492Z,2.50
2023-02-05T07:17:43.149Z,2.60
2023-02-05T07:20:10.516Z,2.40
2023-02-05T07:22:37.263Z,2.17
2023-02-05T07:25:04.831Z,2.30
2023-02-05T07:27:31.648Z,2.20
2023-02-05T07:29:58.400Z,2.30
2023-02-05T07:32:25.099Z,2.37
2023-02-05T07:34:51.797Z,2.40
2023-02-05T07:37:20.507Z,2.30
2023-02-05T07:39:47.997Z,2.30
2023-02-05T07:42:14.718Z,2.47
2023-02-05T07:44:41.336Z,2.50
2023-02-05T07:47:08.060Z,2.73
2023-02-05T07:49:34.856Z,2.60
2023-02-05T07:52:01.663Z,2.40
2023-02-05T07:54:28.338Z,2.53
2023-02-05T07:56:55.413Z,2.77
2023-02-05T07:59:22.273Z,2.50
2023-02-05T08:01:48.984Z,2.30
2023-02-05T08:04:15.732Z,2.70
2023-02-05T08:06:43.173Z,2.57
2023-02-05T08:09:10.981Z,2.33
2023-02-05T08:11:37.632Z,2.50
2023-02-05T08:14:04.303Z,2.60
2023-02-05T08:16:31.008Z,2.70
2023-02-05T08:18:57.764Z,2.83
2023-02-05T08:21:24.870Z,2.47
2023-02-05T08:23:51.570Z,2.87
2023-02-05T08:26:18.816Z,2.43
2023-02-05T08:28:46.157Z,2.73
2023-02-05T08:31:15.637Z,2.60
2023-02-05T08:33:42.827Z,3.07
2023-02-05T08:36:10.254Z,2.83
2023-02-05T08:38:36.925Z,2.70
2023-02-05T08:41:12.570Z,2.77
2023-02-05T08:43:45.116Z,2.80
2023-02-05T08:46:14.511Z,2.47
2023-02-05T08:48:41.837Z,2.73
2023-02-05T08:51:12.897Z,2.70
2023-02-05T08:53:40.593Z,2.70
2023-02-05T08:56:10.558Z,3.23
2023-02-05T08:58:38.253Z,2.40
2023-02-05T09:01:07.965Z,3.93
2023-02-05T09:03:34.690Z,3.00
2023-02-05T09:06:05.315Z,3.00
2023-02-05T09:08:32.319Z,2.43
2023-02-05T09:10:58.993Z,2.67
2023-02-05T09:13:25.879Z,2.40
2023-02-05T09:15:52.638Z,3.30
2023-02-05T09:18:19.730Z,3.30
2023-02-05T09:20:48.733Z,2.80
2023-02-05T09:23:17.421Z,2.60
2023-02-05T09:25:44.482Z,2.70
2023-02-05T09:28:13.282Z,2.53
2023-02-05T09:30:42.372Z,2.90
2023-02-05T09:33:10.470Z,2.73
2023-02-05T09:35:39.746Z,2.40
2023-02-05T09:38:06.857Z,2.70
2023-02-05T09:41:10.162Z,3.60
2023-02-05T09:43:57.820Z,3.10
2023-02-05T09:46:39.563Z,2.90
2023-02-05T09:49:35.524Z,3.17
2023-02-05T09:52:27.343Z,2.60
2023-02-05T09:55:26.017Z,2.83
2023-02-05T09:58:03.570Z,2.93
2023-02-05T10:00:42.936Z,2.57
2023-02-05T10:03:16.104Z,2.90
2023-02-05T10:06:05.683Z,2.77
2023-02-05T10:08:48.682Z,2.37
2023-02-05T10:11:23.433Z,2.50
2023-02-05T10:14:05.158Z,2.87
2023-02-05T10:16:36.919Z,2.50
2023-02-05T10:19:39.943Z,2.73
2023-02-05T10:22:11.018Z,2.90
2023-02-05T10:24:40.670Z,2.67
2023-02-05T10:27:21.506Z,2.33
2023-02-05T10:29:57.290Z,3.20
2023-02-05T10:32:29.754Z,2.70
2023-02-05T10:35:09.407Z,3.67
2023-02-05T10:37:47.927Z,2.83
2023-02-05T10:40:21.518Z,3.30
2023-02-05T10:43:09.442Z,2.77
2023-02-05T10:45:36.335Z,2.70
2023-02-05T10:48:37.531Z,3.07
2023-02-05T10:51:07.116Z,2.90
2023-02-05T10:53:33.960Z,3.03
2023-02-05T10:56:02.637Z,2.87
2023-02-05T10:58:48.222Z,3.50
2023-02-05T11:01:18.664Z,3.47
2023-02-05T11:04:07.469Z,2.70
2023-02-05T11:06:44.434Z,2.77
2023-02-05T11:09:37.386Z,2.93
2023-02-05T11:12:19.693Z,2.60
2023-02-05T11:14:57.718Z,2.70
2023-02-05T11:17:37.090Z,3.47
2023-02-05T11:20:07.220Z,3.17
2023-02-05T11:22:39.877Z,3.00
2023-02-05T11:25:17.490Z,3.10
2023-02-05T11:28:20.282Z,3.60
2023-02-05T11:30:51.182Z,6.20
2023-02-05T11:33:21.941Z,3.77
2023-02-05T11:35:58.428Z,3.30
2023-02-05T11:38:31.058Z,3.10
2023-02-05T11:41:00.950Z,3.50
2023-02-05T11:43:32.126Z,2.93
2023-02-05T11:46:00.535Z,3.20
2023-02-05T11:48:59.500Z,3.17
2023-02-05T11:51:47.223Z,3.33
2023-02-05T11:54:27.162Z,3.40
2023-02-05T11:57:19.710Z,3.33
2023-02-05T12:00:00.830Z,3.40
2023-02-05T12:02:30.379Z,3.17
2023-02-05T12:05:23.907Z,2.83
2023-02-05T12:08:07.566Z,3.73
2023-02-05T12:10:51.450Z,3.70
2023-02-05T12:13:55.349Z,3.70
2023-02-05T12:16:46.270Z,3.70
2023-02-05T12:19:30.928Z,3.17
2023-02-05T12:22:16.596Z,3.70
2023-02-05T12:24:49.668Z,3.70
2023-02-05T12:27:44.118Z,3.40
2023-02-05T12:30:32.058Z,3.57
2023-02-05T12:33:29.787Z,4.33
2023-02-05T12:36:21.505Z,3.80
2023-02-05T12:39:08.137Z,3.50
2023-02-05T12:41:37.692Z,3.93
2023-02-05T12:44:38.277Z,3.67
2023-02-05T12:47:31.301Z,3.77
2023-02-05T12:50:32.542Z,3.87
2023-02-05T12:53:17.686Z,3.67
2023-02-05T12:56:03.182Z,3.83
2023-02-05T12:58:42.190Z,4.90
2023-02-05T13:01:14.819Z,5.10
2023-02-05T13:03:51.370Z,4.60
2023-02-05T13:06:28.340Z,4.93
2023-02-05T13:09:09.030Z,4.77
2023-02-05T13:11:43.601Z,4.73
2023-02-05T13:14:21.738Z,5.43
2023-02-05T13:16:56.430Z,4.63
2023-02-05T13:19:34.082Z,6.67
2023-02-05T13:22:54.241Z,7.30
2023-02-05T13:25:56.312Z,7.50
2023-02-05T13:29:13.923Z,4.87
2023-02-05T13:31:48.162Z,5.20
2023-02-05T13:34:16.783Z,8.17
2023-02-05T13:37:31.245Z,8.93
2023-02-05T13:40:22.310Z,5.03
2023-02-05T13:43:00.672Z,4.87
2023-02-05T13:46:01.422Z,4.80
2023-02-05T13:48:40.333Z,4.17
2023-02-05T13:51:06.904Z,6.77
2023-02-05T13:53:55.068Z,8.73
2023-02-05T13:56:37.016Z,7.40
2023-02-05T13:59:35.843Z,6.17
2023-02-05T14:02:03.906Z,6.33
2023-02-05T14:04:42.297Z,7.00
2023-02-05T14:07:19.348Z,6.27
2023-02-05T14:09:56.304Z,5.57
2023-02-05T14:12:26.867Z,5.67
2023-02-05T14:15:15.535Z,6.27
2023-02-05T14:17:42.152Z,6.50
2023-02-05T14:20:31.760Z,7.07
2023-02-05T14:23:04.195Z,7.03
2023-02-05T14:25:41.428Z,7.70
2023-02-05T14:28:17.409Z,6.87
2023-02-05T14:31:00.328Z,7.03
2023-02-05T14:33:43.076Z,6.60
2023-02-05T14:36:22.702Z,6.93
2023-02-05T14:39:00.900Z,6.70
2023-02-05T14:41:50.383Z,7.27
2023-02-05T14:44:30.262Z,7.47
2023-02-05T14:47:29.451Z,7.10
2023-02-05T14:50:06.026Z,6.80
2023-02-05T14:52:34.781Z,7.27
2023-02-05T14:55:07.625Z,7.40
2023-02-05T14:57:51.996Z,7.30
2023-02-05T15:00:28.044Z,7.20
2023-02-05T15:03:19.752Z,8.90
2023-02-05T15:05:46.816Z,7.73
2023-02-05T15:08:32.331Z,7.87
2023-02-05T15:11:26.410Z,7.93
2023-02-05T15:14:35.469Z,9.10
2023-02-05T15:17:05.162Z,8.93
2023-02-05T15:19:42.838Z,9.10
2023-02-05T15:22:26.440Z,8.93
2023-02-05T15:24:54.744Z,9.83
2023-02-05T15:27:26.498Z,9.20
2023-02-05T15:29:57.605Z,9.30
2023-02-05T15:32:30.316Z,9.20
2023-02-05T15:35:07.768Z,8.83
2023-02-05T15:37:49.800Z,9.70
2023-02-05T15:40:25.175Z,11.07
2023-02-05T15:43:19.662Z,9.43
2023-02-05T15:45:46.895Z,9.77
2023-02-05T15:48:17.780Z,9.40
2023-02-05T15:50:58.632Z,9.03
2023-02-05T15:53:39.264Z,9.90
2023-02-05T15:56:26.326Z,10.80
2023-02-05T15:58:57.800Z,9.83
2023-02-05T16:01:46.094Z,9.60
2023-02-05T16:04:19.972Z,8.97
2023-02-05T16:06:46.840Z,10.17
2023-02-05T16:09:25.619Z,10.80
2023-02-05T16:11:52.360Z,9.33
2023-02-05T16:14:21.713Z,11.93
2023-02-05T16:16:51.146Z,11.00
2023-02-05T16:19:23.484Z,10.13
2023-02-05T16:22:14.777Z,10.30
2023-02-05T16:24:43.832Z,12.20
2023-02-05T16:27:26.351Z,11.23
2023-02-05T16:29:57.209Z,11.17
2023-02-05T16:32:44.106Z,11.83
2023-02-05T16:35:30.434Z,10.53
2023-02-05T16:37:57.404Z,11.87
2023-02-05T16:40:35.689Z,13.07
2023-02-05T16:43:25.623Z,14.10
2023-02-05T16:46:31.061Z,15.13
2023-02-05T16:49:18.006Z,13.27
2023-02-05T16:51:47.746Z,13.63
2023-02-05T16:54:14.406Z,12.00
2023-02-05T16:56:55.274Z,13.13
2023-02-05T16:59:26.390Z,13.00
2023-02-05T17:01:53.824Z,14.43
2023-02-05T17:04:27.373Z,13.20
2023-02-05T17:06:59.308Z,14.03
2023-02-05T17:09:31.075Z,14.17
2023-02-05T17:12:25.380Z,13.80
2023-02-05T17:14:56.469Z,13.80
2023-02-05T17:17:25.208Z,14.00
2023-02-05T17:20:07.365Z,14.90
2023-02-05T17:22:34.786Z,14.47
2023-02-05T17:25:02.258Z,14.00
2023-02-05T17:27:37.667Z,14.77
2023-02-05T17:30:06.749Z,15.43
2023-02-05T17:32:33.625Z,14.53
2023-02-05T17:35:00.503Z,15.03
2023-02-05T17:37:27.158Z,17.00
2023-02-05T17:39:55.507Z,15.07
2023-02-05T17:42:25.186Z,15.80
2023-02-05T17:44:53.668Z,15.63
2023-02-05T17:47:20.413Z,15.43
2023-02-05T17:49:47.770Z,16.20
2023-02-05T17:52:17.865Z,14.73
2023-02-05T17:54:46.272Z,15.80
2023-02-05T17:57:18.900Z,15.70
2023-02-05T17:59:46.769Z,15.37
2023-02-05T18:02:14.205Z,15.80
2023-02-05T18:04:42.103Z,16.93
2023-02-05T18:07:36.993Z,16.77
2023-02-05T18:10:05.465Z,16.50
2023-02-05T18:12:32.682Z,17.87
2023-02-05T18:14:59.440Z,15.63
2023-02-05T18:17:26.100Z,16.43
2023-02-05T18:19:52.870Z,17.13
2023-02-05T18:22:19.867Z,17.50
2023-02-05T18:24:46.578Z,17.10
2023-02-05T18:27:13.280Z,23.27
2023-02-05T18:29:41.258Z,18.30
2023-02-05T18:32:08.902Z,18.50
2023-02-05T18:34:35.835Z,18.07
2023-02-05T18:37:02.559Z,18.27
2023-02-05T18:39:29.626Z,17.43
2023-02-05T18:41:57.600Z,17.90
2023-02-05T18:44:25.632Z,18.43
2023-02-05T18:46:53.210Z,20.10
2023-02-05T18:49:20.178Z,37.73
2023-02-05T18:51:46.905Z,38.33
2023-02-05T18:54:13.652Z,18.37
2023-02-05T18:56:40.388Z,17.63
2023-02-05T18:59:08.407Z,19.50
2023-02-05T19:01:38.350Z,16.67
2023-02-05T19:04:13.006Z,16.47
2023-02-05T19:06:53.296Z,17.87
2023-02-05T19:09:21.855Z,18.10
2023-02-05T19:11:48.939Z,19.83
2023-02-05T19:14:18.271Z,15.97
2023-02-05T19:16:47.023Z,19.73
2023-02-05T19:19:22.091Z,17.40
2023-02-05T19:21:54.231Z,18.20
2023-02-05T19:24:22.001Z,17.43
2023-02-05T19:26:50.854Z,17.20
2023-02-05T19:29:20.021Z,18.30
2023-02-05T19:31:47.269Z,17.53
2023-02-05T19:34:14.108Z,19.40
2023-02-05T19:36:40.968Z,17.70
2023-02-05T19:39:10.601Z,18.23
2023-02-05T19:41:37.860Z,20.40
2023-02-05T19:44:07.387Z,18.27
2023-02-05T19:46:48.790Z,16.30
2023-02-05T19:49:20.584Z,19.27
2023-02-05T19:51:49.237Z,17.50
2023-02-05T19:54:16.308Z,18.37
2023-02-05T19:56:43.924Z,19.03
2023-02-05T19:59:11.741Z,16.30
2023-02-05T20:01:40.794Z,15.80
2023-02-05T20:04:19.405Z,14.83
2023-02-05T20:06:46.943Z,14.30
2023-02-05T20:09:15.068Z,14.30
2023-02-05T20:11:43.723Z,14.70
2023-02-05T20:14:11.374Z,14.80
2023-02-05T20:16:40.384Z,14.37
2023-02-05T20:19:10.114Z,14.83
2023-02-05T20:21:37.297Z,14.90
2023-02-05T20:24:04.729Z,15.27
2023-02-05T20:26:31.904Z,15.50
2023-02-05T20:29:17.462Z,15.33
2023-02-05T20:31:49.561Z,14.77
2023-02-05T20:34:19.169Z,14.13
2023-02-05T20:36:51.205Z,15.77
2023-02-05T20:39:19.094Z,14.80
2023-02-05T20:41:47.069Z,13.87
2023-02-05T20:44:14.277Z,12.73
2023-02-05T20:46:41.441Z,12.10
2023-02-05T20:49:09.083Z,13.57
2023-02-05T20:51:36.045Z,14.17
2023-02-05T20:54:03.010Z,12.40
2023-02-05T20:56:30.599Z,12.00
2023-02-05T20:59:02.738Z,11.83
2023-02-05T21:01:31.244Z,10.87
2023-02-05T21:04:01.037Z,11.20
2023-02-05T21:06:36.058Z,12.47
2023-02-05T21:09:03.752Z,12.23
2023-02-05T21:11:31.174Z,12.27
2023-02-05T21:13:58.883Z,11.83
2023-02-05T21:16:28.006Z,12.50
2023-02-05T21:18:55.998Z,12.43
2023-02-05T21:21:25.483Z,12.10
2023-02-05T21:24:00.323Z,11.60
2023-02-05T21:26:28.549Z,11.00
2023-02-05T21:28:57.404Z,10.77
2023-02-05T21:31:25.838Z,10.77
2023-02-05T21:33:52.525Z,10.83
2023-02-05T21:36:20.413Z,10.23
2023-02-05T21:38:47.115Z,10.27
2023-02-05T21:41:17.412Z,9.13
2023-02-05T21:43:51.809Z,9.53
2023-02-05T21:46:19.097Z,9.13
2023-02-05T21:48:50.930Z,9.97
2023-02-05T21:51:20.046Z,9.53
2023-02-05T21:53:46.769Z,8.83
2023-02-05T21:56:16.580Z,9.00
2023-02-05T21:58:43.637Z,8.63
2023-02-05T22:01:10.257Z,9.50
2023-02-05T22:03:36.955Z,9.63
2023-02-05T22:06:06.757Z,9.77
2023-02-05T22:08:38.407Z,9.83
2023-02-05T22:11:07.807Z,9.77
2023-02-05T22:13:37.257Z,8.80
2023-02-05T22:16:07.864Z,9.10
2023-02-05T22:18:35.749Z,9.57
2023-02-05T22:21:13.703Z,8.20
2023-02-05T22:23:42.532Z,9.40
2023-02-05T22:26:10.337Z,9.03
2023-02-05T22:28:37.370Z,9.23
2023-02-05T22:31:10.473Z,8.87
2023-02-05T22:33:39.039Z,7.70
2023-02-05T22:36:08.043Z,7.83
2023-02-05T22:38:37.064Z,8.83
2023-02-05T22:41:15.753Z,7.30
2023-02-05T22:43:42.690Z,7.77
2023-02-05T22:46:18.035Z,7.07
2023-02-05T22:48:47.409Z,6.87
2023-02-05T22:51:19.886Z,6.70
2023-02-05T22:53:48.802Z,6.30
2023-02-05T22:56:16.615Z,6.87
2023-02-05T22:58:46.555Z,7.57
2023-02-05T23:01:16.181Z,6.30
2023-02-05T23:03:43.561Z,6.50
2023-02-05T23:06:15.087Z,6.83
2023-02-05T23:08:42.957Z,6.63
2023-02-05T23:11:15.654Z,6.97
2023-02-05T23:13:42.899Z,6.73
2023-02-05T23:16:15.579Z,6.93
2023-02-05T23:18:42.973Z,6.67
2023-02-05T23:21:12.667Z,7.03
2023-02-05T23:23:40.058Z,6.80
2023-02-05T23:26:12.691Z,6.50
2023-02-05T23:28:39.839Z,6.37
2023-02-05T23:31:07.094Z,6.20
2023-02-05T23:33:34.962Z,5.80
2023-02-05T23:36:02.733Z,5.83
2023-02-05T23:38:29.967Z,5.30
2023-02-05T23:40:57.406Z,5.90
2023-02-05T23:43:24.821Z,6.27
2023-02-05T23:45:52.987Z,6.03
2023-02-05T23:48:20.169Z,5.37
2023-02-05T23:50:52.154Z,5.60
2023-02-05T23:53:23.188Z,5.30
2023-02-05T23:55:51.921Z,5.93
2023-02-05T23:58:20.237Z,5.53
